Time;durP1;ratioP1;P1;durP2;ratioP2;P2;SDS_P1;SDS_P2;PMS_P1;PMS_P2;Temp;Humidity;BMP_temperature;BMP_pressure;BME280_temperature;BME280_humidity;BME280_pressure;Samples;Min_cycle;Max_cycle;Signal;HPM_P1;HPM_P2
2022/05/06 03:02:29;;;;;;;28.50;25.67;;;11.70;99.90;;;;;;4992231;23;20243;-73
2022/05/06 03:04:55;;;;;;;35.10;27.07;;;11.70;99.90;;;;;;4951490;28;20244;-76
2022/05/06 03:07:22;;;;;;;26.77;23.90;;;11.70;99.90;;;;;;4952271;28;20194;-74
2022/05/06 03:09:48;;;;;;;28.30;24.00;;;11.70;99.90;;;;;;4951557;29;20295;-73
2022/05/06 03:12:17;;;;;;;32.53;28.30;;;11.70;99.90;;;;;;4952580;28;20221;-74
2022/05/06 03:14:43;;;;;;;33.00;29.60;;;11.60;99.90;;;;;;4952833;29;20188;-76
2022/05/06 03:17:09;;;;;;;31.37;28.13;;;11.60;99.90;;;;;;4952003;28;20174;-74
2022/05/06 03:19:35;;;;;;;30.00;26.83;;;11.60;99.90;;;;;;4952587;28;20200;-76
2022/05/06 03:22:01;;;;;;;36.10;27.03;;;11.70;99.90;;;;;;4952765;28;20240;-76
2022/05/06 03:24:27;;;;;;;31.07;27.83;;;11.70;99.90;;;;;;4951596;29;20190;-76
2022/05/06 03:26:54;;;;;;;30.77;27.37;;;11.70;99.90;;;;;;4951267;29;20240;-76
2022/05/06 03:29:20;;;;;;;33.23;29.87;;;11.70;99.90;;;;;;4952549;28;20241;-75
2022/05/06 03:31:46;;;;;;;23.90;21.40;;;11.70;99.90;;;;;;4950834;29;20205;-76
2022/05/06 03:34:12;;;;;;;27.40;24.57;;;11.70;99.90;;;;;;4952626;29;20270;-76
2022/05/06 03:36:38;;;;;;;31.97;26.73;;;11.70;99.90;;;;;;4951461;29;20182;-76
2022/05/06 03:39:04;;;;;;;30.60;27.27;;;11.70;99.90;;;;;;4951318;29;20191;-76
2022/05/06 03:41:30;;;;;;;29.93;26.80;;;11.70;99.90;;;;;;4950782;29;20208;-76
2022/05/06 03:43:56;;;;;;;29.77;26.87;;;11.80;99.90;;;;;;4950963;28;20186;-76
2022/05/06 03:46:22;;;;;;;35.80;30.47;;;11.70;99.90;;;;;;4954762;28;20182;-75
2022/05/06 03:48:48;;;;;;;43.00;38.50;;;11.70;99.90;;;;;;4954726;28;20565;-75
2022/05/06 03:51:23;;;;;;;45.50;41.27;;;11.70;99.90;;;;;;4944989;28;20284;-70
2022/05/06 03:53:57;;;;;;;33.57;30.00;;;11.70;99.90;;;;;;4936749;29;20280;-70
2022/05/06 03:56:24;;;;;;;29.77;26.93;;;11.70;99.90;;;;;;4937670;29;20182;-70
2022/05/06 03:58:53;;;;;;;30.83;27.87;;;11.70;99.90;;;;;;4953676;28;20192;-69
2022/05/06 04:01:20;;;;;;;29.37;26.37;;;11.70;99.90;;;;;;4954458;28;20213;-70
2022/05/06 04:03:49;;;;;;;29.57;26.60;;;11.70;99.90;;;;;;4955800;28;20208;-70
2022/05/06 04:06:15;;;;;;;30.53;26.10;;;11.60;99.90;;;;;;4952674;28;20185;-70
2022/05/06 04:08:42;;;;;;;31.30;28.17;;;11.70;99.90;;;;;;4940986;28;20237;-70
2022/05/06 04:11:12;;;;;;;40.93;37.27;;;11.70;99.90;;;;;;4949816;29;20208;-72
2022/05/06 04:13:39;;;;;;;86.03;79.93;;;11.70;99.90;;;;;;4950823;28;20192;-72
2022/05/06 04:16:07;;;;;;;142.57;133.23;;;11.70;99.90;;;;;;4972807;28;20188;-73
2022/05/06 04:18:32;;;;;;;136.93;127.67;;;11.70;99.90;;;;;;4954536;29;20197;-72
2022/05/06 04:23:42;;;;;;;30.27;27.03;;;11.80;99.90;;;;;;4954944;29;20240;-72
2022/05/06 04:26:11;;;;;;;31.10;27.87;;;11.80;99.90;;;;;;4954684;29;20376;-72
2022/05/06 04:28:37;;;;;;;28.63;25.40;;;11.80;99.90;;;;;;4934334;29;20214;-73
2022/05/06 04:31:04;;;;;;;29.23;24.33;;;11.90;99.90;;;;;;4934530;29;20214;-72
2022/05/06 04:33:30;;;;;;;30.37;25.00;;;11.90;99.90;;;;;;4935374;28;20657;-74
2022/05/06 04:35:57;;;;;;;30.17;25.37;;;11.90;99.90;;;;;;4934622;29;20182;-72
2022/05/06 04:38:24;;;;;;;28.70;25.17;;;12.00;99.90;;;;;;4951575;29;20280;-72
2022/05/06 04:40:51;;;;;;;29.53;24.60;;;12.00;99.90;;;;;;4955355;28;20219;-72
2022/05/06 04:43:18;;;;;;;31.77;28.23;;;12.00;99.90;;;;;;4955136;28;20193;-73
2022/05/06 04:45:44;;;;;;;33.30;25.73;;;12.10;99.90;;;;;;4955812;28;20187;-72
2022/05/06 04:48:12;;;;;;;27.60;21.80;;;12.10;99.90;;;;;;4938507;29;20206;-72
2022/05/06 04:50:39;;;;;;;31.10;25.47;;;12.10;99.90;;;;;;4934950;28;20685;-72
2022/05/06 04:53:07;;;;;;;34.70;31.43;;;12.10;99.90;;;;;;4935666;29;20226;-71
2022/05/06 04:55:38;;;;;;;57.70;53.53;;;12.20;99.90;;;;;;4933664;29;20181;-71
2022/05/06 04:58:04;;;;;;;66.03;61.17;;;12.20;99.90;;;;;;4947799;29;20204;-72
2022/05/06 05:00:31;;;;;;;64.13;59.40;;;12.30;99.90;;;;;;4953391;28;20673;-72
2022/05/06 05:02:57;;;;;;;60.07;55.47;;;12.30;99.90;;;;;;4953341;29;20199;-72
2022/05/06 05:05:24;;;;;;;61.10;56.60;;;12.30;99.90;;;;;;4954250;28;20280;-72
2022/05/06 05:07:50;;;;;;;74.67;69.23;;;12.40;99.90;;;;;;4941167;28;20261;-71
2022/05/06 05:10:16;;;;;;;75.10;69.87;;;12.50;99.90;;;;;;4935899;28;20638;-72
2022/05/06 05:12:42;;;;;;;81.43;75.27;;;12.50;99.90;;;;;;4941769;28;20274;-72
2022/05/06 05:15:08;;;;;;;82.83;76.70;;;12.50;99.90;;;;;;4939604;29;20580;-71
2022/05/06 05:17:34;;;;;;;73.80;68.63;;;12.50;99.90;;;;;;4944843;29;20231;-73
2022/05/06 05:20:01;;;;;;;72.57;67.37;;;12.60;99.90;;;;;;4956822;29;20408;-73
2022/05/06 05:22:27;;;;;;;74.20;69.00;;;12.60;99.90;;;;;;4953367;28;20216;-73
2022/05/06 05:24:52;;;;;;;52.83;48.53;;;12.60;99.90;;;;;;4954454;29;20605;-73
2022/05/06 05:27:18;;;;;;;29.20;26.30;;;12.60;99.90;;;;;;4946364;29;20187;-72
2022/05/06 05:29:45;;;;;;;63.17;58.50;;;12.60;99.90;;;;;;4934326;29;20213;-72
2022/05/06 05:32:11;;;;;;;62.03;57.50;;;12.50;99.90;;;;;;4934929;29;20212;-73
2022/05/06 05:34:36;;;;;;;47.97;43.87;;;12.50;99.90;;;;;;4934770;28;20214;-73
2022/05/06 05:37:02;;;;;;;61.93;56.97;;;12.50;99.90;;;;;;4934263;28;20620;-73
2022/05/06 05:39:28;;;;;;;49.70;45.60;;;12.60;99.90;;;;;;4933243;29;20716;-73
2022/05/06 05:41:54;;;;;;;37.10;32.73;;;12.60;99.90;;;;;;4932776;29;20264;-73
2022/05/06 05:49:49;;;;;;;29.87;24.67;;;12.70;99.90;;;;;;4942344;29;20355;-72
2022/05/06 05:52:15;;;;;;;41.60;38.07;;;12.70;99.90;;;;;;4953332;29;20232;-72
2022/05/06 05:54:41;;;;;;;37.10;33.57;;;12.70;99.90;;;;;;4953319;29;20605;-72
2022/05/06 05:57:07;;;;;;;38.40;34.90;;;12.70;99.90;;;;;;4953024;29;20178;-73
2022/05/06 05:59:36;;;;;;;114.00;106.37;;;12.70;99.90;;;;;;4952289;28;20190;-72
2022/05/06 06:02:02;;;;;;;127.87;118.97;;;12.70;99.90;;;;;;4953157;28;20227;-72
2022/05/06 06:04:28;;;;;;;48.00;43.43;;;12.80;99.90;;;;;;4953734;29;20619;-73
2022/05/06 06:06:54;;;;;;;85.93;79.90;;;12.80;99.90;;;;;;4952353;28;20600;-72
2022/05/06 06:09:23;;;;;;;135.10;127.13;;;12.80;99.90;;;;;;4951061;29;20217;-72
2022/05/06 06:11:49;;;;;;;143.00;134.40;;;12.80;99.90;;;;;;4936108;29;20338;-72
2022/05/06 06:14:16;;;;;;;123.30;115.53;;;12.80;99.90;;;;;;4934901;29;20241;-73
2022/05/06 06:16:43;;;;;;;77.60;72.37;;;12.90;99.90;;;;;;4933325;29;20189;-73
2022/05/06 06:19:09;;;;;;;62.37;57.70;;;12.90;99.90;;;;;;4934552;29;20261;-72
2022/05/06 06:21:35;;;;;;;49.90;45.83;;;12.90;99.90;;;;;;4952998;29;20222;-73
2022/05/06 06:24:00;;;;;;;44.73;41.23;;;12.80;99.90;;;;;;4953356;29;20182;-72
2022/05/06 06:26:26;;;;;;;65.47;60.70;;;12.90;99.90;;;;;;4953420;29;20215;-75
2022/05/06 06:28:52;;;;;;;69.57;64.60;;;12.90;99.90;;;;;;4951504;29;20205;-73
2022/05/06 06:31:18;;;;;;;99.70;92.77;;;12.90;99.90;;;;;;4933793;29;20209;-72
2022/05/06 06:33:44;;;;;;;64.50;59.83;;;13.00;99.90;;;;;;4934975;29;20694;-73
2022/05/06 06:36:10;;;;;;;35.57;32.30;;;13.00;99.90;;;;;;4939172;29;20189;-72
2022/05/06 06:38:36;;;;;;;27.33;24.50;;;13.10;99.90;;;;;;4952282;28;20646;-72
2022/05/06 06:41:04;;;;;;;27.20;24.27;;;13.20;99.90;;;;;;4951327;29;20293;-73
2022/05/06 06:43:30;;;;;;;33.10;29.90;;;13.20;99.90;;;;;;4952668;28;20546;-73
2022/05/06 06:45:56;;;;;;;26.23;23.77;;;13.20;99.90;;;;;;4951659;28;20189;-73
2022/05/06 06:48:24;;;;;;;23.10;20.60;;;13.20;99.90;;;;;;4950981;28;20677;-72
2022/05/06 06:50:52;;;;;;;24.13;21.73;;;13.20;99.90;;;;;;4948396;29;20573;-72
2022/05/06 06:53:19;;;;;;;32.50;24.77;;;13.20;99.90;;;;;;4951201;28;20717;-73
2022/05/06 06:55:45;;;;;;;26.33;23.53;;;13.20;99.90;;;;;;4950269;28;20185;-72
2022/05/06 06:58:11;;;;;;;24.60;22.30;;;13.30;99.90;;;;;;4950604;28;20213;-73
2022/05/06 07:00:37;;;;;;;25.23;22.73;;;13.20;99.90;;;;;;4939215;29;20909;-72
2022/05/06 07:03:04;;;;;;;26.17;23.77;;;13.20;99.90;;;;;;4931263;29;20704;-73
2022/05/06 07:05:30;;;;;;;25.10;22.50;;;13.20;99.90;;;;;;4933763;29;20249;-72
2022/05/06 07:13:30;;;;;;;25.17;22.30;;;13.10;99.90;;;;;;4942818;29;20217;-72
2022/05/06 07:15:56;;;;;;;22.20;20.03;;;13.10;99.90;;;;;;4933780;29;20269;-72
2022/05/06 07:18:21;;;;;;;30.93;28.20;;;13.10;99.90;;;;;;4933349;28;20276;-72
2022/05/06 07:20:48;;;;;;;21.80;19.67;;;13.20;99.90;;;;;;4949398;29;20288;-72
2022/05/06 07:23:14;;;;;;;21.83;19.83;;;13.10;99.90;;;;;;4956863;28;20836;-72
2022/05/06 07:25:40;;;;;;;23.87;21.57;;;13.10;99.90;;;;;;4956612;29;20228;-72
2022/05/06 07:28:06;;;;;;;49.27;45.63;;;13.20;99.90;;;;;;4956117;29;20620;-72
2022/05/06 07:30:32;;;;;;;50.90;47.50;;;13.20;99.90;;;;;;4956124;28;20209;-72
2022/05/06 07:32:58;;;;;;;32.33;29.60;;;13.30;99.90;;;;;;4956543;28;20257;-73
2022/05/06 07:35:24;;;;;;;32.67;30.13;;;13.30;99.90;;;;;;4956538;29;20188;-72
2022/05/06 07:37:50;;;;;;;24.40;22.20;;;13.40;99.90;;;;;;4955018;28;20653;-72
2022/05/06 07:40:16;;;;;;;23.87;22.00;;;13.40;99.90;;;;;;4947437;29;20183;-73
2022/05/06 07:42:43;;;;;;;28.33;25.20;;;13.50;99.90;;;;;;4946108;29;20178;-72
2022/05/06 07:45:11;;;;;;;22.00;19.93;;;13.60;99.90;;;;;;4955594;28;20188;-73
2022/05/06 07:47:37;;;;;;;18.70;16.00;;;13.60;99.90;;;;;;4955782;28;20181;-72
2022/05/06 07:50:04;;;;;;;17.50;14.73;;;13.70;99.90;;;;;;4954237;29;20185;-72
2022/05/06 07:52:31;;;;;;;15.30;13.80;;;13.70;99.90;;;;;;4956103;28;20533;-72
2022/05/06 07:54:57;;;;;;;14.17;12.70;;;13.80;99.90;;;;;;4955919;28;20284;-73
2022/05/06 07:57:22;;;;;;;14.57;13.17;;;13.90;99.90;;;;;;4955601;28;20539;-73
2022/05/06 07:59:48;;;;;;;15.93;14.33;;;13.90;99.90;;;;;;4939341;29;20194;-73
2022/05/06 08:04:59;;;;;;;21.03;19.03;;;14.00;99.90;;;;;;4938438;29;20229;-71
2022/05/06 08:07:25;;;;;;;18.60;17.00;;;14.00;99.90;;;;;;4937000;28;20277;-72
2022/05/06 08:09:50;;;;;;;20.77;19.03;;;14.00;99.90;;;;;;4952741;29;20608;-72
2022/05/06 08:12:17;;;;;;;32.73;29.53;;;14.00;99.90;;;;;;4957294;29;20194;-72
2022/05/06 08:14:44;;;;;;;28.63;26.27;;;14.00;99.90;;;;;;4956013;28;20194;-74
2022/05/06 08:17:10;;;;;;;29.03;26.60;;;14.00;99.90;;;;;;4955440;28;20665;-72
2022/05/06 08:19:35;;;;;;;24.93;23.03;;;13.90;99.90;;;;;;4941284;28;20269;-72
2022/05/06 08:22:01;;;;;;;30.23;28.23;;;13.90;99.90;;;;;;4936352;29;20206;-72
2022/05/06 08:24:27;;;;;;;24.20;22.40;;;13.90;99.90;;;;;;4936518;28;20191;-72
2022/05/06 08:26:53;;;;;;;27.53;25.57;;;13.90;99.90;;;;;;4934382;29;20189;-71
2022/05/06 08:29:19;;;;;;;31.73;29.63;;;13.90;99.90;;;;;;4944935;29;20696;-71
2022/05/06 08:31:45;;;;;;;35.40;33.00;;;14.00;99.90;;;;;;4933685;29;20262;-72
2022/05/06 08:34:12;;;;;;;24.47;22.30;;;14.10;99.90;;;;;;4934674;29;20186;-71
2022/05/06 08:36:42;;;;;;;15.70;14.30;;;14.10;99.90;;;;;;4935622;28;20190;-72
2022/05/06 08:39:10;;;;;;;13.20;11.80;;;14.20;99.90;;;;;;4946066;28;20212;-72
2022/05/06 08:41:36;;;;;;;16.93;15.37;;;14.20;99.90;;;;;;4953081;29;20236;-71
2022/05/06 08:52:36;;;;;;;14.80;13.37;;;14.90;99.90;;;;;;4935429;29;20695;-71
2022/05/06 08:55:05;;;;;;;15.70;12.37;;;15.00;99.90;;;;;;4938786;28;20867;-72
2022/05/06 08:57:31;;;;;;;23.13;21.60;;;15.20;99.90;;;;;;4952227;28;20344;-76
2022/05/06 08:59:57;;;;;;;21.23;19.63;;;15.30;99.90;;;;;;4953616;28;20613;-73
2022/05/06 09:02:23;;;;;;;16.60;15.30;;;15.40;99.90;;;;;;4954353;28;20272;-72
2022/05/06 09:04:49;;;;;;;16.70;15.30;;;15.50;99.90;;;;;;4954752;29;20181;-73
2022/05/06 09:07:20;;;;;;;13.23;11.87;;;15.70;99.90;;;;;;4954520;29;20252;-73
2022/05/06 09:10:14;;;;;;;12.00;10.77;;;15.80;99.90;;;;;;4937932;28;20210;-72
2022/05/06 09:17:51;;;;;;;11.80;10.80;;;16.80;99.90;;;;;;4953429;29;20185;-72
2022/05/06 09:20:21;;;;;;;20.63;19.13;;;17.10;99.90;;;;;;4952935;29;20189;-72
2022/05/06 09:22:50;;;;;;;13.43;12.53;;;17.40;99.90;;;;;;4954056;28;20185;-72
2022/05/06 09:25:35;;;;;;;16.47;15.13;;;17.60;99.90;;;;;;4952250;29;20269;-72
2022/05/06 09:28:02;;;;;;;12.00;11.10;;;17.50;99.90;;;;;;4952801;29;20298;-72
2022/05/06 09:30:27;;;;;;;11.17;9.90;;;17.30;99.90;;;;;;4945829;29;20182;-72
2022/05/06 09:32:53;;;;;;;12.10;11.10;;;17.10;99.90;;;;;;4927877;29;20796;-72
2022/05/06 09:35:19;;;;;;;13.30;11.13;;;17.20;99.90;;;;;;4915459;29;20175;-72
2022/05/06 09:37:49;;;;;;;9.27;8.47;;;17.30;99.90;;;;;;4914952;29;20187;-72
2022/05/06 09:40:27;;;;;;;13.10;8.13;;;17.50;99.90;;;;;;4951856;29;20189;-73
2022/05/06 09:42:55;;;;;;;9.10;8.30;;;17.80;99.90;;;;;;4953561;28;20235;-72
2022/05/06 09:45:38;;;;;;;12.57;11.60;;;18.20;99.90;;;;;;4951185;29;20236;-73
2022/05/06 09:48:05;;;;;;;15.43;14.43;;;18.20;99.90;;;;;;4931716;29;20221;-71
2022/05/06 09:50:45;;;;;;;16.20;14.97;;;18.10;99.90;;;;;;4953332;28;20197;-74
2022/05/06 09:53:13;;;;;;;22.43;20.47;;;18.00;99.90;;;;;;4953892;28;20201;-72
2022/05/06 09:55:46;;;;;;;23.73;21.57;;;18.00;99.90;;;;;;4954090;28;20187;-72
2022/05/06 09:58:13;;;;;;;22.60;20.97;;;18.30;99.90;;;;;;4951402;28;20713;-73
2022/05/06 10:00:40;;;;;;;11.90;9.53;;;19.00;99.90;;;;;;4934405;29;20194;-73
2022/05/06 10:03:08;;;;;;;8.77;8.00;;;19.10;99.90;;;;;;4936008;29;20940;-74
2022/05/06 10:05:36;;;;;;;9.17;8.23;;;19.10;99.90;;;;;;4935631;29;20265;-75
2022/05/06 10:08:23;;;;;;;8.77;8.10;;;19.20;99.90;;;;;;4932768;29;20238;-77
2022/05/06 10:10:59;;;;;;;9.73;8.83;;;19.40;99.90;;;;;;4914343;29;20687;-73
2022/05/06 10:13:29;;;;;;;17.40;13.07;;;19.70;99.90;;;;;;4914889;29;20218;-76
2022/05/06 10:15:56;;;;;;;22.47;20.67;;;20.00;99.90;;;;;;4933845;29;20194;-73
2022/05/06 10:18:32;;;;;;;21.03;19.50;;;20.20;99.90;;;;;;4949265;28;20562;-73
2022/05/06 10:20:59;;;;;;;12.53;11.30;;;20.30;99.90;;;;;;4953367;28;20204;-73
2022/05/06 10:23:43;;;;;;;10.60;9.40;;;20.70;99.90;;;;;;4952882;28;20729;-73
2022/05/06 10:26:09;;;;;;;7.90;6.93;;;20.70;99.90;;;;;;4951783;28;20639;-72
2022/05/06 10:34:17;;;;;;;7.53;6.73;;;21.40;99.90;;;;;;4933351;29;20197;-72
2022/05/06 10:36:51;;;;;;;7.23;6.63;;;21.30;99.90;;;;;;4933552;29;20593;-72
2022/05/06 10:39:33;;;;;;;6.90;6.40;;;21.50;99.90;;;;;;4942368;29;20220;-72
2022/05/06 10:42:17;;;;;;;6.33;5.73;;;21.40;99.50;;;;;;4952913;29;20241;-73
2022/05/06 10:44:49;;;;;;;7.03;6.37;;;21.30;99.90;;;;;;4952565;28;20236;-73
2022/05/06 10:47:15;;;;;;;9.20;6.17;;;21.00;99.90;;;;;;4952473;28;20234;-72
2022/05/06 10:49:42;;;;;;;8.10;7.30;;;21.10;99.90;;;;;;4939446;28;20199;-72
2022/05/06 10:52:22;;;;;;;8.20;5.80;;;21.50;99.90;;;;;;4932250;29;20268;-73
2022/05/06 10:54:49;;;;;;;6.83;6.07;;;21.70;97.40;;;;;;4931587;29;20197;-73
2022/05/06 10:57:16;;;;;;;7.57;6.97;;;21.70;96.50;;;;;;4933458;29;20240;-71
2022/05/06 10:59:50;;;;;;;7.17;6.07;;;21.30;94.70;;;;;;4944093;29;20185;-74
2022/05/06 11:02:17;;;;;;;6.37;5.77;;;21.00;96.70;;;;;;4952534;29;20248;-74
2022/05/06 11:04:52;;;;;;;7.67;6.20;;;21.30;97.20;;;;;;4952499;28;20681;-72
2022/05/06 11:07:19;;;;;;;5.73;5.27;;;21.10;95.90;;;;;;4952164;29;20283;-72
2022/05/06 11:09:45;;;;;;;8.20;6.10;;;21.20;96.20;;;;;;4941048;28;20206;-71
2022/05/06 11:12:27;;;;;;;8.73;5.77;;;20.90;95.20;;;;;;4937899;28;20187;-72
2022/05/06 11:14:56;;;;;;;6.37;5.80;;;20.80;96.10;;;;;;4932588;29;20304;-72
2022/05/06 11:17:22;;;;;;;8.73;6.40;;;21.10;96.50;;;;;;4932944;29;20265;-71
2022/05/06 11:19:49;;;;;;;9.83;6.53;;;21.30;96.20;;;;;;4936209;29;20193;-71
2022/05/06 11:22:15;;;;;;;14.20;13.13;;;21.30;95.30;;;;;;4933471;28;20178;-71
2022/05/06 11:24:41;;;;;;;12.10;11.00;;;21.60;93.00;;;;;;4931993;29;20305;-71
2022/05/06 11:27:20;;;;;;;7.57;6.87;;;22.10;93.40;;;;;;4932663;29;20691;-71
2022/05/06 11:29:56;;;;;;;10.82;9.60;;;22.60;91.30;;;;;;4943462;29;20205;-71
2022/05/06 11:32:27;;;;;;;7.55;6.85;;;22.60;92.80;;;;;;4952233;28;20268;-71
2022/05/06 11:35:09;;;;;;;9.75;8.93;;;22.90;91.30;;;;;;4952515;28;20289;-71
2022/05/06 11:37:40;;;;;;;9.07;8.47;;;22.50;88.30;;;;;;4950924;29;20189;-71
2022/05/06 11:40:19;;;;;;;9.10;7.90;;;22.20;88.90;;;;;;4938029;28;20187;-71
2022/05/06 11:42:45;;;;;;;10.67;9.77;;;22.00;90.10;;;;;;4933327;29;20273;-71
2022/05/06 11:48:07;;;;;;;10.00;8.90;;;22.50;89.00;;;;;;4932971;29;20194;-72
2022/05/06 11:50:34;;;;;;;8.77;7.85;;;22.20;90.30;;;;;;4950152;29;20252;-73
2022/05/06 11:53:05;;;;;;;7.70;7.00;;;22.20;91.00;;;;;;4951618;28;20639;-73
2022/05/06 11:55:31;;;;;;;11.17;9.67;;;22.30;90.90;;;;;;4951490;28;20188;-73
2022/05/06 11:57:58;;;;;;;12.17;11.47;;;22.70;88.90;;;;;;4951218;28;20247;-73
2022/05/06 12:00:25;;;;;;;11.77;11.07;;;22.60;86.50;;;;;;4935880;28;20218;-73
2022/05/06 12:02:51;;;;;;;7.00;6.50;;;22.30;85.60;;;;;;4933216;29;20206;-73
2022/05/06 12:05:20;;;;;;;20.03;18.60;;;20.80;90.90;;;;;;4935280;29;20190;-73
2022/05/06 12:07:48;;;;;;;15.57;14.47;;;20.60;92.90;;;;;;4936441;29;20189;-73
2022/05/06 12:10:28;;;;;;;12.53;11.40;;;20.80;91.80;;;;;;4949677;29;20232;-73
2022/05/06 12:13:04;;;;;;;16.37;15.23;;;20.80;90.90;;;;;;4944022;28;20269;-73
2022/05/06 12:15:35;;;;;;;14.60;13.13;;;20.80;92.10;;;;;;4935369;29;20246;-73
2022/05/06 12:18:09;;;;;;;17.10;15.63;;;20.80;91.50;;;;;;4936100;29;20281;-73
2022/05/06 12:20:39;;;;;;;12.37;11.43;;;20.80;91.80;;;;;;4953088;29;20277;-73
2022/05/06 12:23:07;;;;;;;13.87;12.87;;;20.80;91.40;;;;;;4955349;28;20233;-73
2022/05/06 12:25:39;;;;;;;13.03;12.03;;;20.50;91.60;;;;;;4955514;28;20181;-72
2022/05/06 12:28:05;;;;;;;13.60;12.60;;;20.30;92.60;;;;;;4953900;29;20665;-73
2022/05/06 12:30:31;;;;;;;13.40;9.43;;;20.30;92.70;;;;;;4938814;29;20266;-72
2022/05/06 12:33:09;;;;;;;8.23;7.50;;;20.00;92.80;;;;;;4934684;29;20182;-73
2022/05/06 12:35:55;;;;;;;8.27;7.43;;;19.70;93.00;;;;;;4935981;29;20556;-72
2022/05/06 12:38:22;;;;;;;8.70;7.00;;;19.80;93.50;;;;;;4934801;29;20242;-72
2022/05/06 12:40:52;;;;;;;7.30;6.70;;;19.60;93.90;;;;;;4954347;28;20193;-73
2022/05/06 12:43:27;;;;;;;7.63;6.93;;;19.70;93.60;;;;;;4954855;28;20205;-73
2022/05/06 12:45:54;;;;;;;9.20;6.63;;;20.00;93.90;;;;;;4954801;29;20188;-73
2022/05/06 12:51:04;;;;;;;9.43;8.63;;;20.50;92.70;;;;;;4920609;29;20187;-73
2022/05/06 12:53:30;;;;;;;7.97;7.17;;;20.40;93.10;;;;;;4921447;29;20266;-73
2022/05/06 12:55:56;;;;;;;13.90;12.90;;;20.50;94.10;;;;;;4915596;29;20183;-73
2022/05/06 12:58:27;;;;;;;17.60;16.43;;;20.90;92.00;;;;;;4915074;29;20605;-73
2022/05/06 13:00:57;;;;;;;13.83;12.90;;;20.90;90.90;;;;;;4952872;29;20244;-73
2022/05/06 13:03:24;;;;;;;13.33;12.17;;;20.70;91.70;;;;;;4954641;28;20209;-73
2022/05/06 13:05:50;;;;;;;12.77;11.87;;;20.60;91.20;;;;;;4954726;28;20185;-73
2022/05/06 13:08:16;;;;;;;15.93;14.47;;;20.80;92.00;;;;;;4954120;28;20756;-73
2022/05/06 13:10:42;;;;;;;14.97;13.87;;;21.10;91.30;;;;;;4937363;28;20182;-73
2022/05/06 13:13:08;;;;;;;19.20;18.10;;;21.10;90.90;;;;;;4935205;29;20935;-73
2022/05/06 13:15:34;;;;;;;17.60;16.40;;;21.10;91.90;;;;;;4935637;29;20190;-73
2022/05/06 13:18:00;;;;;;;13.00;11.90;;;21.10;91.60;;;;;;4934405;29;20539;-73
2022/05/06 13:20:26;;;;;;;13.10;12.03;;;21.30;91.30;;;;;;4949613;29;20186;-73
2022/05/06 13:22:52;;;;;;;10.93;8.37;;;21.10;91.00;;;;;;4953119;28;20185;-73
2022/05/06 13:25:17;;;;;;;8.97;8.37;;;20.90;90.80;;;;;;4953227;29;20319;-73
2022/05/06 13:27:45;;;;;;;15.87;14.67;;;20.50;90.70;;;;;;4954212;29;20186;-73
2022/05/06 13:30:10;;;;;;;13.23;12.37;;;20.40;91.80;;;;;;4940756;29;20210;-73
2022/05/06 13:32:36;;;;;;;13.27;12.37;;;20.60;91.70;;;;;;4934356;29;20194;-72
2022/05/06 13:35:04;;;;;;;11.47;10.70;;;20.50;91.30;;;;;;4934942;29;20229;-72
2022/05/06 13:37:29;;;;;;;14.13;12.83;;;20.60;90.40;;;;;;4934614;28;20194;-73
2022/05/06 13:39:55;;;;;;;14.37;13.37;;;20.60;90.50;;;;;;4944778;29;20186;-71
2022/05/06 13:42:21;;;;;;;12.30;11.47;;;20.70;90.80;;;;;;4953944;29;20249;-74
2022/05/06 13:44:46;;;;;;;12.53;11.60;;;20.70;90.60;;;;;;4953981;28;20730;-73
2022/05/06 13:47:13;;;;;;;14.00;12.97;;;20.40;90.60;;;;;;4952679;29;20186;-72
2022/05/06 13:49:41;;;;;;;12.07;11.03;;;19.90;91.10;;;;;;4945099;29;20637;-75
2022/05/06 13:52:07;;;;;;;10.07;9.47;;;19.80;92.30;;;;;;4946461;29;20181;-73
2022/05/06 13:54:33;;;;;;;13.73;12.30;;;20.00;92.60;;;;;;4953864;28;20304;-73
2022/05/06 13:59:43;;;;;;;11.93;10.90;;;20.30;91.60;;;;;;4945647;29;20198;-73
2022/05/06 14:02:09;;;;;;;14.67;13.63;;;20.40;92.40;;;;;;4934604;29;20182;-73
2022/05/06 14:04:35;;;;;;;14.40;13.43;;;20.60;91.40;;;;;;4934393;29;20691;-73
2022/05/06 14:07:03;;;;;;;11.63;10.70;;;20.80;91.40;;;;;;4938516;29;20701;-73
2022/05/06 14:09:28;;;;;;;18.43;17.27;;;20.70;90.80;;;;;;4952377;29;20220;-73
2022/05/06 14:11:54;;;;;;;16.77;15.63;;;20.70;91.80;;;;;;4953595;29;20182;-72
2022/05/06 14:14:20;;;;;;;16.87;15.67;;;20.70;91.40;;;;;;4953419;28;20304;-72
2022/05/06 14:16:46;;;;;;;16.10;15.03;;;20.70;91.60;;;;;;4949407;29;20198;-72
2022/05/06 14:19:12;;;;;;;11.10;10.00;;;20.60;92.10;;;;;;4933257;29;20187;-73
2022/05/06 14:21:37;;;;;;;12.57;11.67;;;20.40;90.60;;;;;;4934370;29;20182;-72
2022/05/06 14:24:04;;;;;;;16.70;15.50;;;20.20;91.20;;;;;;4933346;29;20214;-73
2022/05/06 14:26:30;;;;;;;14.50;13.50;;;20.10;91.70;;;;;;4933296;29;20178;-72
2022/05/06 14:28:56;;;;;;;14.03;12.87;;;20.10;91.90;;;;;;4914184;29;20258;-72
2022/05/06 14:31:22;;;;;;;13.97;12.97;;;20.00;92.60;;;;;;4915491;29;20870;-72
2022/05/06 14:33:47;;;;;;;13.07;12.17;;;19.90;92.30;;;;;;4921905;29;20226;-73
2022/05/06 14:36:19;;;;;;;16.43;15.33;;;19.90;92.00;;;;;;4921888;29;20242;-72
2022/05/06 14:38:45;;;;;;;11.53;10.80;;;19.90;91.60;;;;;;4950174;29;20281;-72
2022/05/06 14:41:11;;;;;;;10.90;9.93;;;19.90;92.60;;;;;;4953733;28;20186;-72
2022/05/06 14:43:37;;;;;;;7.53;6.83;;;19.90;92.10;;;;;;4951964;28;20261;-72
2022/05/06 14:46:02;;;;;;;9.50;8.27;;;19.70;93.50;;;;;;4953294;29;20252;-72
2022/05/06 14:48:28;;;;;;;10.97;10.17;;;19.70;92.90;;;;;;4936166;29;20690;-72
2022/05/06 14:50:54;;;;;;;9.50;8.80;;;19.70;92.10;;;;;;4933995;29;20243;-72
2022/05/06 14:53:20;;;;;;;9.90;8.43;;;19.70;92.50;;;;;;4932780;29;20209;-72
2022/05/06 14:55:45;;;;;;;10.47;7.90;;;19.80;93.00;;;;;;4933030;29;20183;-72
2022/05/06 14:58:11;;;;;;;10.40;9.63;;;19.80;93.00;;;;;;4946068;29;20182;-72
2022/05/06 15:00:38;;;;;;;11.23;10.40;;;19.90;92.50;;;;;;4953126;28;20717;-73
2022/05/06 15:03:04;;;;;;;13.13;11.50;;;19.80;92.60;;;;;;4951717;28;20198;-72
2022/05/06 15:05:30;;;;;;;12.23;11.27;;;19.80;92.30;;;;;;4953273;28;20561;-72
2022/05/06 15:07:55;;;;;;;7.10;6.43;;;19.80;92.30;;;;;;4940772;29;20189;-72
2022/05/06 15:10:21;;;;;;;7.93;7.33;;;19.70;93.70;;;;;;4933902;29;20643;-72
2022/05/06 15:12:47;;;;;;;9.10;8.20;;;19.60;93.80;;;;;;4932488;29;20206;-73
2022/05/06 15:15:14;;;;;;;8.97;7.57;;;19.60;92.80;;;;;;4927127;29;20270;-72
2022/05/06 15:17:40;;;;;;;9.23;7.70;;;19.20;93.20;;;;;;4965229;23;20233;-71
2022/05/06 15:20:06;;;;;;;9.03;8.17;;;19.20;93.40;;;;;;4952637;28;20273;-71
2022/05/06 15:22:33;;;;;;;11.40;8.10;;;19.10;93.40;;;;;;4951152;28;20684;-72
2022/05/06 15:24:59;;;;;;;9.07;8.33;;;19.30;94.30;;;;;;4952690;28;20182;-72
2022/05/06 15:27:26;;;;;;;8.07;7.13;;;19.50;94.70;;;;;;4946514;28;20213;-72
2022/05/06 15:29:52;;;;;;;8.70;7.90;;;19.50;93.80;;;;;;4933484;29;20750;-73
2022/05/06 15:32:18;;;;;;;8.60;7.77;;;19.40;93.20;;;;;;4932420;29;20283;-73
2022/05/06 15:34:45;;;;;;;8.13;7.53;;;19.20;93.60;;;;;;4933450;29;20294;-72
2022/05/06 15:37:11;;;;;;;9.00;7.70;;;19.20;93.30;;;;;;4936598;29;20204;-74
2022/05/06 15:39:37;;;;;;;9.50;8.27;;;19.20;94.20;;;;;;4952888;28;20646;-73
2022/05/06 15:42:04;;;;;;;8.93;8.03;;;19.30;94.40;;;;;;4956456;28;20186;-73
2022/05/06 15:44:29;;;;;;;9.93;7.93;;;19.40;94.40;;;;;;4956090;28;20196;-74
2022/05/06 15:46:56;;;;;;;8.57;7.80;;;19.30;93.30;;;;;;4954212;28;20201;-72
2022/05/06 15:49:21;;;;;;;8.53;7.83;;;19.40;93.80;;;;;;4936944;29;20207;-72
2022/05/06 15:51:48;;;;;;;9.40;7.13;;;19.30;93.90;;;;;;4936659;29;20190;-73
2022/05/06 15:54:14;;;;;;;8.97;7.83;;;19.20;93.60;;;;;;4935692;29;20175;-74
2022/05/06 15:56:40;;;;;;;9.43;8.27;;;19.20;93.80;;;;;;4953830;28;20202;-73
2022/05/06 15:59:06;;;;;;;9.30;8.40;;;19.20;94.40;;;;;;4955899;28;20196;-71
2022/05/06 16:01:32;;;;;;;8.47;7.50;;;19.30;94.40;;;;;;4955062;28;20209;-73
2022/05/06 16:03:58;;;;;;;8.30;7.50;;;19.30;94.00;;;;;;4954734;28;20186;-72
2022/05/06 16:06:24;;;;;;;9.47;7.80;;;19.30;93.40;;;;;;4938426;29;20301;-72
2022/05/06 16:08:50;;;;;;;9.20;8.40;;;19.30;93.80;;;;;;4936519;29;20318;-72
2022/05/06 16:11:16;;;;;;;8.87;8.07;;;19.20;94.00;;;;;;4936742;29;20192;-73
2022/05/06 16:13:42;;;;;;;8.47;7.67;;;19.30;94.30;;;;;;4935350;29;20625;-73
2022/05/06 16:16:08;;;;;;;8.27;7.57;;;19.30;94.60;;;;;;4949104;28;20182;-73
2022/05/06 16:18:34;;;;;;;8.63;7.93;;;19.30;94.00;;;;;;4954235;29;20185;-72